Time;durP1;ratioP1;P1;durP2;ratioP2;P2;SDS_P1;SDS_P2;PMS_P1;PMS_P2;Temp;Humidity;BMP_temperature;BMP_pressure;BME280_temperature;BME280_humidity;BME280_pressure;Samples;Min_cycle;Max_cycle;Signal;HPM_P1;HPM_P2
2022/05/29 00:00:39;;;;;;;;;;;14.10;63.40;;;;;;5049282;28;19920;-72
2022/05/29 00:03:04;;;;;;;;;;;14.10;63.50;;;;;;5035753;28;20198;-71
2022/05/29 00:05:30;;;;;;;;;;;14.10;63.50;;;;;;5068856;28;19912;-71
2022/05/29 00:07:56;;;;;;;;;;;14.10;63.50;;;;;;5047075;28;19913;-72
2022/05/29 00:10:22;;;;;;;;;;;14.10;63.70;;;;;;5043586;28;19909;-71
2022/05/29 00:12:47;;;;;;;;;;;14.00;63.70;;;;;;5052769;28;19912;-72
2022/05/29 00:15:13;;;;;;;;;;;14.00;63.70;;;;;;5066194;28;19920;-72
2022/05/29 00:17:39;;;;;;;;;;;14.00;63.90;;;;;;5068586;28;19966;-72
2022/05/29 00:20:05;;;;;;;;;;;14.00;63.90;;;;;;5065565;28;19920;-72
2022/05/29 00:22:31;;;;;;;;;;;14.00;63.90;;;;;;5044192;28;19960;-71
2022/05/29 00:24:56;;;;;;;;;;;14.00;64.00;;;;;;5054834;28;20091;-71
2022/05/29 00:27:23;;;;;;;;;;;13.90;64.10;;;;;;5030081;28;20001;-72
2022/05/29 00:29:49;;;;;;;;;;;13.90;64.20;;;;;;5056570;28;19916;-72
2022/05/29 00:32:14;;;;;;;;;;;13.90;64.20;;;;;;5068558;28;20003;-72
2022/05/29 00:34:40;;;;;;;;;;;13.80;64.20;;;;;;5066028;28;20019;-72
2022/05/29 00:37:09;;;;;;;;;;;13.80;64.30;;;;;;5067261;28;20158;-71
2022/05/29 00:39:35;;;;;;;;;;;13.80;64.20;;;;;;5048713;28;19921;-71
2022/05/29 00:42:05;;;;;;;;;;;13.80;64.20;;;;;;5048125;28;19920;-71
2022/05/29 00:44:31;;;;;;;;;;;13.80;64.30;;;;;;5053352;28;19924;-72
2022/05/29 00:46:56;;;;;;;;;;;13.80;64.40;;;;;;5068037;28;20050;-72
2022/05/29 00:49:23;;;;;;;;;;;13.80;64.30;;;;;;5066100;28;19999;-72
2022/05/29 00:52:09;;;;;;;;;;;13.80;64.50;;;;;;5067122;28;20085;-71
2022/05/29 00:54:43;;;;;;;;;;;13.80;64.70;;;;;;5016620;28;19914;-71
2022/05/29 00:57:14;;;;;;;;;;;13.70;64.50;;;;;;5027150;28;20342;-72
2022/05/29 00:59:39;;;;;;;;;;;13.70;64.70;;;;;;5028495;28;19920;-72
2022/05/29 01:02:05;;;;;;;;;;;13.70;64.70;;;;;;5064471;28;19920;-71
2022/05/29 01:04:31;;;;;;;;;;;13.70;64.80;;;;;;5065507;28;20346;-71
2022/05/29 01:06:57;;;;;;;;;;;13.70;64.80;;;;;;5064989;28;20034;-71
2022/05/29 01:09:23;;;;;;;;;;;13.70;64.90;;;;;;5051333;28;20481;-72
2022/05/29 01:12:00;;;;;;;;;;;13.60;64.90;;;;;;5057468;28;19917;-72
2022/05/29 01:14:26;;;;;;;;;;;13.60;65.00;;;;;;5065907;28;19916;-72
2022/05/29 01:17:10;;;;;;;;;;;13.60;65.20;;;;;;5065126;28;20258;-72
2022/05/29 01:20:05;;;;;;;;;;;13.60;65.20;;;;;;5067498;28;20514;-72
2022/05/29 01:22:39;;;;;;;;;;;13.60;65.10;;;;;;5037516;28;19956;-71
2022/05/29 01:25:24;;;;;;;;;;;13.50;65.10;;;;;;5050831;28;19913;-71
2022/05/29 01:28:02;;;;;;;;;;;13.50;65.20;;;;;;5062407;28;19927;-71
2022/05/29 01:30:30;;;;;;;;;;;13.50;65.40;;;;;;5067379;28;19912;-72
2022/05/29 01:33:16;;;;;;;;;;;13.50;65.40;;;;;;5064717;28;19960;-72
2022/05/29 01:35:42;;;;;;;;;;;13.40;65.40;;;;;;5067026;28;20354;-71
2022/05/29 01:38:16;;;;;;;;;;;13.40;65.60;;;;;;5058902;28;19912;-73
2022/05/29 01:40:46;;;;;;;;;;;13.40;65.50;;;;;;5047221;28;19966;-72
2022/05/29 01:43:30;;;;;;;;;;;13.40;65.60;;;;;;5059834;28;19927;-72
2022/05/29 01:46:05;;;;;;;;;;;13.40;65.60;;;;;;5066967;28;19912;-72
2022/05/29 01:48:30;;;;;;;;;;;13.40;65.70;;;;;;5046098;28;19919;-72
2022/05/29 01:50:59;;;;;;;;;;;13.40;65.70;;;;;;5066985;28;19912;-71
2022/05/29 01:53:32;;;;;;;;;;;13.40;65.80;;;;;;5052166;28;19974;-73
2022/05/29 01:56:00;;;;;;;;;;;13.30;65.80;;;;;;5045993;28;19951;-72
2022/05/29 01:58:29;;;;;;;;;;;13.30;65.90;;;;;;5051325;28;19927;-72
2022/05/29 02:00:57;;;;;;;;;;;13.30;65.90;;;;;;5066590;28;19912;-72
2022/05/29 02:03:27;;;;;;;;;;;13.30;66.00;;;;;;5063887;28;19924;-71
2022/05/29 02:05:55;;;;;;;;;;;13.30;66.00;;;;;;5066660;28;19913;-72
2022/05/29 02:08:40;;;;;;;;;;;13.30;66.10;;;;;;5060995;28;20497;-72
2022/05/29 02:11:12;;;;;;;;;;;13.30;66.10;;;;;;5035545;28;19917;-72
2022/05/29 02:13:43;;;;;;;;;;;13.20;66.10;;;;;;5055427;28;19917;-72
2022/05/29 02:16:11;;;;;;;;;;;13.20;66.10;;;;;;5050030;28;20004;-72
2022/05/29 02:18:40;;;;;;;;;;;13.20;66.30;;;;;;5051353;28;19917;-72
2022/05/29 02:21:14;;;;;;;;;;;13.20;66.20;;;;;;5054405;28;19960;-72
2022/05/29 02:23:44;;;;;;;;;;;13.20;66.40;;;;;;5040580;28;19927;-72
2022/05/29 02:26:11;;;;;;;;;;;13.20;66.30;;;;;;5066138;28;19966;-72
2022/05/29 02:28:39;;;;;;;;;;;13.20;66.40;;;;;;5063769;28;19920;-72
2022/05/29 02:31:05;;;;;;;;;;;13.20;66.40;;;;;;5066505;28;19919;-72
2022/05/29 02:33:47;;;;;;;;;;;13.10;66.40;;;;;;5063846;28;19908;-72
2022/05/29 02:36:19;;;;;;;;;;;13.10;66.50;;;;;;5065740;28;19917;-72
2022/05/29 02:38:50;;;;;;;;;;;13.10;66.60;;;;;;5036034;28;19916;-72
2022/05/29 02:41:20;;;;;;;;;;;13.10;66.60;;;;;;5065758;28;19923;-72
2022/05/29 02:43:48;;;;;;;;;;;13.10;66.60;;;;;;5064198;28;19924;-72
2022/05/29 02:46:21;;;;;;;;;;;13.00;66.60;;;;;;5064885;28;19912;-72
2022/05/29 02:48:50;;;;;;;;;;;13.00;66.70;;;;;;5065560;28;19961;-71
2022/05/29 02:51:19;;;;;;;;;;;13.00;66.70;;;;;;5063136;28;19920;-72
2022/05/29 02:53:45;;;;;;;;;;;13.00;66.70;;;;;;5051027;28;20760;-72
2022/05/29 02:56:11;;;;;;;;;;;13.00;66.70;;;;;;5058634;28;20456;-72
2022/05/29 02:58:38;;;;;;;;;;;13.00;66.70;;;;;;5065958;28;19913;-72
2022/05/29 03:01:03;;;;;;;;;;;13.00;66.70;;;;;;5063470;28;19919;-72
2022/05/29 03:03:35;;;;;;;;;;;13.00;66.70;;;;;;5065656;28;19916;-72
2022/05/29 03:06:19;;;;;;;;;;;13.00;66.80;;;;;;5062716;28;19924;-72
2022/05/29 03:08:44;;;;;;;;;;;12.90;66.80;;;;;;5054329;28;19921;-72
2022/05/29 03:11:13;;;;;;;;;;;12.90;66.80;;;;;;5053888;28;19961;-72
2022/05/29 03:13:44;;;;;;;;;;;13.00;66.90;;;;;;5059812;28;19927;-72
2022/05/29 03:16:19;;;;;;;;;;;12.90;66.90;;;;;;5060392;28;19912;-72
2022/05/29 03:18:52;;;;;;;;;;;13.00;67.10;;;;;;5044683;28;20476;-72
2022/05/29 03:21:18;;;;;;;;;;;12.90;67.00;;;;;;5058863;28;20170;-73
2022/05/29 03:23:58;;;;;;;;;;;13.00;67.00;;;;;;5054188;28;20392;-72
2022/05/29 03:26:42;;;;;;;;;;;12.90;67.00;;;;;;5061625;28;19913;-72
2022/05/29 03:29:10;;;;;;;;;;;12.90;67.20;;;;;;5065420;28;20024;-72
2022/05/29 03:31:37;;;;;;;;;;;12.90;67.00;;;;;;5062730;28;20431;-72
2022/05/29 03:34:02;;;;;;;;;;;12.90;67.10;;;;;;5064486;28;20459;-72
2022/05/29 03:36:31;;;;;;;;;;;12.90;67.10;;;;;;5062636;28;19921;-72
2022/05/29 03:38:57;;;;;;;;;;;12.90;67.30;;;;;;5052535;28;19909;-72
2022/05/29 03:41:28;;;;;;;;;;;12.90;67.30;;;;;;5046397;28;19927;-73
2022/05/29 03:43:53;;;;;;;;;;;12.90;68.10;;;;;;5065017;28;19928;-73
2022/05/29 03:46:19;;;;;;;;;;;12.90;67.50;;;;;;5062008;28;19912;-72
2022/05/29 03:48:44;;;;;;;;;;;12.90;67.40;;;;;;5064969;28;19912;-72
2022/05/29 03:51:10;;;;;;;;;;;12.90;67.50;;;;;;5065247;28;19913;-72
2022/05/29 03:53:36;;;;;;;;;;;12.90;67.60;;;;;;5048821;28;20738;-72
2022/05/29 03:56:01;;;;;;;;;;;12.90;67.60;;;;;;5031038;28;20680;-72
2022/05/29 03:58:27;;;;;;;;;;;12.90;67.70;;;;;;5054357;28;19916;-72
2022/05/29 04:00:52;;;;;;;;;;;12.90;67.50;;;;;;5065089;28;19944;-72
2022/05/29 04:03:18;;;;;;;;;;;12.90;68.40;;;;;;5062365;28;19920;-72
2022/05/29 04:05:43;;;;;;;;;;;12.90;67.50;;;;;;5065001;28;20688;-72
2022/05/29 04:13:42;;;;;;;;;;;12.90;67.70;;;;;;5054562;28;19919;-72
2022/05/29 04:16:08;;;;;;;;;;;12.90;67.90;;;;;;5064851;28;19977;-74
2022/05/29 04:18:33;;;;;;;;;;;12.90;67.70;;;;;;5062199;28;19920;-74
2022/05/29 04:20:59;;;;;;;;;;;12.90;67.90;;;;;;5064071;28;19919;-74
2022/05/29 04:23:24;;;;;;;;;;;12.90;67.90;;;;;;5055820;28;19930;-74
2022/05/29 04:25:50;;;;;;;;;;;12.90;67.80;;;;;;5064778;28;19973;-74
2022/05/29 04:28:15;;;;;;;;;;;12.90;67.70;;;;;;5062123;28;19924;-74
2022/05/29 04:30:41;;;;;;;;;;;12.80;67.70;;;;;;5064709;28;19920;-74
2022/05/29 04:33:07;;;;;;;;;;;12.80;67.80;;;;;;5062238;28;19965;-72
2022/05/29 04:35:38;;;;;;;;;;;12.80;68.00;;;;;;5064432;28;20289;-72
2022/05/29 04:38:03;;;;;;;;;;;12.80;68.00;;;;;;5059943;28;20004;-73
2022/05/29 04:40:30;;;;;;;;;;;12.80;67.90;;;;;;5046837;28;20413;-74
2022/05/29 04:42:55;;;;;;;;;;;12.80;67.90;;;;;;5048229;28;19917;-74
2022/05/29 04:45:21;;;;;;;;;;;12.90;68.00;;;;;;5061813;28;20285;-74
2022/05/29 04:47:46;;;;;;;;;;;12.80;68.00;;;;;;5067835;28;20269;-74
2022/05/29 04:50:12;;;;;;;;;;;12.90;68.00;;;;;;5047243;28;19916;-74
2022/05/29 04:52:38;;;;;;;;;;;12.80;68.00;;;;;;5056651;28;19913;-74
2022/05/29 04:55:04;;;;;;;;;;;12.90;68.10;;;;;;5047418;28;19917;-74
2022/05/29 04:57:29;;;;;;;;;;;12.90;68.10;;;;;;5034905;28;19913;-74
2022/05/29 04:59:55;;;;;;;;;;;12.90;68.30;;;;;;5029202;28;19920;-74
2022/05/29 05:02:20;;;;;;;;;;;12.90;68.20;;;;;;5036651;28;19967;-74
2022/05/29 05:04:46;;;;;;;;;;;12.90;68.10;;;;;;5039995;28;19921;-74
2022/05/29 05:07:11;;;;;;;;;;;12.90;68.20;;;;;;5041343;28;19920;-74
2022/05/29 05:09:38;;;;;;;;;;;12.90;68.10;;;;;;5045236;28;19976;-74
2022/05/29 05:12:03;;;;;;;;;;;12.90;68.20;;;;;;5064146;28;19982;-74
2022/05/29 05:14:29;;;;;;;;;;;12.90;68.20;;;;;;5066275;28;19912;-74
2022/05/29 05:16:54;;;;;;;;;;;12.90;68.20;;;;;;5064678;28;20010;-74
2022/05/29 05:19:21;;;;;;;;;;;12.90;68.40;;;;;;5057289;28;19944;-74
2022/05/29 05:21:46;;;;;;;;;;;12.90;68.30;;;;;;5065143;28;19916;-74
2022/05/29 05:24:12;;;;;;;;;;;12.90;68.40;;;;;;5050077;28;19924;-74
2022/05/29 05:26:37;;;;;;;;;;;12.90;68.40;;;;;;5064275;28;20292;-74
2022/05/29 05:29:03;;;;;;;;;;;12.90;68.60;;;;;;5067602;28;20734;-74
2022/05/29 05:31:29;;;;;;;;;;;12.90;68.60;;;;;;5064723;28;19912;-74
2022/05/29 05:33:55;;;;;;;;;;;12.90;68.60;;;;;;5067265;28;19923;-74
2022/05/29 05:36:20;;;;;;;;;;;12.90;68.60;;;;;;5064506;28;19919;-74
2022/05/29 05:38:46;;;;;;;;;;;12.90;68.70;;;;;;5055963;28;20432;-74
2022/05/29 05:41:13;;;;;;;;;;;12.90;68.40;;;;;;5050092;28;19982;-74
2022/05/29 05:43:39;;;;;;;;;;;12.90;68.80;;;;;;5066905;28;19924;-74
2022/05/29 05:46:08;;;;;;;;;;;12.90;69.00;;;;;;5046333;28;20041;-74
2022/05/29 05:48:34;;;;;;;;;;;12.90;69.00;;;;;;5066813;28;20630;-74
2022/05/29 05:51:00;;;;;;;;;;;12.90;69.00;;;;;;5042034;28;19940;-74
2022/05/29 05:53:26;;;;;;;;;;;12.90;68.80;;;;;;5032453;28;20015;-75
2022/05/29 05:55:51;;;;;;;;;;;13.00;68.90;;;;;;5026236;28;19960;-75
2022/05/29 05:58:17;;;;;;;;;;;13.00;69.00;;;;;;5059993;28;19958;-74
2022/05/29 06:00:43;;;;;;;;;;;12.90;69.00;;;;;;5066686;28;19916;-74
2022/05/29 06:03:08;;;;;;;;;;;13.00;69.20;;;;;;5064129;28;19977;-74
2022/05/29 06:05:34;;;;;;;;;;;13.00;69.20;;;;;;5048847;28;20514;-74
2022/05/29 06:07:59;;;;;;;;;;;13.00;69.20;;;;;;5051561;28;20042;-74
2022/05/29 06:10:25;;;;;;;;;;;13.00;69.10;;;;;;5046446;28;20018;-74
2022/05/29 06:12:50;;;;;;;;;;;13.00;69.20;;;;;;5053042;28;19913;-74
2022/05/29 06:15:16;;;;;;;;;;;13.10;69.40;;;;;;5066271;28;19916;-74
2022/05/29 06:17:41;;;;;;;;;;;13.00;69.40;;;;;;5063825;28;20504;-74
2022/05/29 06:20:07;;;;;;;;;;;13.10;69.50;;;;;;5055820;28;19923;-74
2022/05/29 06:22:36;;;;;;;;;;;13.10;69.50;;;;;;5063812;28;20700;-74
2022/05/29 06:25:02;;;;;;;;;;;13.10;69.60;;;;;;5066354;28;20432;-74
2022/05/29 06:27:28;;;;;;;;;;;13.10;69.50;;;;;;5063665;28;19916;-74
2022/05/29 06:29:54;;;;;;;;;;;13.20;69.80;;;;;;5066476;28;19916;-74
2022/05/29 06:32:19;;;;;;;;;;;13.20;69.70;;;;;;5066340;28;19942;-74
2022/05/29 06:34:44;;;;;;;;;;;13.20;69.80;;;;;;5063438;28;20339;-74
2022/05/29 06:37:10;;;;;;;;;;;13.20;69.60;;;;;;5065840;28;19917;-74
2022/05/29 06:39:36;;;;;;;;;;;13.20;70.40;;;;;;5050326;28;19916;-72
2022/05/29 06:42:02;;;;;;;;;;;13.20;69.60;;;;;;5046246;28;19948;-72
2022/05/29 06:44:27;;;;;;;;;;;13.30;70.30;;;;;;5055706;28;19916;-72
2022/05/29 06:46:53;;;;;;;;;;;13.30;69.70;;;;;;5065976;28;19921;-72
2022/05/29 06:49:18;;;;;;;;;;;13.30;69.70;;;;;;5063455;28;20574;-72
2022/05/29 06:51:44;;;;;;;;;;;13.30;69.70;;;;;;5065772;28;19916;-72
2022/05/29 06:54:09;;;;;;;;;;;13.30;69.50;;;;;;5052397;28;19919;-72
2022/05/29 06:56:35;;;;;;;;;;;13.30;69.60;;;;;;5065723;28;19921;-72
2022/05/29 06:59:01;;;;;;;;;;;13.40;69.60;;;;;;5063385;28;20007;-72
2022/05/29 07:07:00;;;;;;;;;;;13.50;69.30;;;;;;5065407;28;19919;-72
2022/05/29 07:09:27;;;;;;;;;;;13.60;69.30;;;;;;5050636;28;19916;-72
2022/05/29 07:11:55;;;;;;;;;;;13.60;69.30;;;;;;5063753;28;19955;-72
2022/05/29 07:14:21;;;;;;;;;;;13.70;69.40;;;;;;5060562;28;19916;-73
2022/05/29 07:16:46;;;;;;;;;;;13.70;69.40;;;;;;5065015;28;20506;-73
2022/05/29 07:19:13;;;;;;;;;;;13.80;69.40;;;;;;5055427;28;19912;-72
2022/05/29 07:21:40;;;;;;;;;;;13.80;69.30;;;;;;5054203;28;19924;-72
2022/05/29 07:24:06;;;;;;;;;;;13.90;69.30;;;;;;5050784;28;19998;-72
2022/05/29 07:26:32;;;;;;;;;;;13.90;69.10;;;;;;5034072;28;19920;-72
2022/05/29 07:28:57;;;;;;;;;;;13.90;69.10;;;;;;5041845;28;21184;-73
2022/05/29 07:31:23;;;;;;;;;;;13.90;69.20;;;;;;5041407;28;19928;-72
2022/05/29 07:33:48;;;;;;;;;;;13.90;69.50;;;;;;5036323;28;20309;-72
2022/05/29 07:36:13;;;;;;;;;;;13.90;69.50;;;;;;5039218;28;19923;-72
2022/05/29 07:38:39;;;;;;;;;;;13.80;69.70;;;;;;5037703;28;20369;-72
2022/05/29 07:43:18;;;;;;;;;;;13.90;69.60;;;;;;5031021;28;20014;-72
2022/05/29 07:43:54;;;;;;;;;;;13.80;69.70;;;;;;5024184;28;20271;-71
2022/05/29 07:46:19;;;;;;;;;;;13.90;69.80;;;;;;5046201;28;19924;-71
2022/05/29 07:48:45;;;;;;;;;;;13.80;69.90;;;;;;5063784;28;19920;-71
2022/05/29 07:51:10;;;;;;;;;;;13.90;69.90;;;;;;5061581;28;20527;-72
2022/05/29 07:53:39;;;;;;;;;;;13.90;70.00;;;;;;5046661;28;19917;-72
2022/05/29 07:56:05;;;;;;;;;;;13.90;69.90;;;;;;5033257;28;20021;-72
2022/05/29 07:58:30;;;;;;;;;;;13.90;69.90;;;;;;5032844;28;20366;-72
2022/05/29 08:00:56;;;;;;;;;;;14.00;69.80;;;;;;5033939;28;19913;-71
2022/05/29 08:03:23;;;;;;;;;;;14.00;69.90;;;;;;5031398;28;20493;-71
2022/05/29 08:05:49;;;;;;;;;;;14.00;69.70;;;;;;5032722;28;19913;-71
2022/05/29 08:08:14;;;;;;;;;;;14.10;69.50;;;;;;5015082;28;19952;-72
2022/05/29 08:10:41;;;;;;;;;;;14.10;69.70;;;;;;5035142;28;19996;-71
2022/05/29 08:13:07;;;;;;;;;;;14.10;69.70;;;;;;5038834;28;19921;-72
2022/05/29 08:15:32;;;;;;;;;;;14.10;69.70;;;;;;5047864;28;19951;-71
2022/05/29 08:17:58;;;;;;;;;;;14.10;70.80;;;;;;5016618;28;19956;-71
2022/05/29 08:20:23;;;;;;;;;;;14.00;70.20;;;;;;5055205;28;19959;-72
2022/05/29 08:22:49;;;;;;;;;;;14.00;70.40;;;;;;5065033;28;19962;-71
2022/05/29 08:30:47;;;;;;;;;;;14.00;70.60;;;;;;5067475;28;20337;-71
2022/05/29 08:33:13;;;;;;;;;;;14.00;70.40;;;;;;5063913;28;20617;-71
2022/05/29 08:35:39;;;;;;;;;;;14.00;70.60;;;;;;5067497;28;19999;-72
2022/05/29 08:38:05;;;;;;;;;;;14.00;70.40;;;;;;5064672;28;20329;-71
2022/05/29 08:40:31;;;;;;;;;;;14.10;70.30;;;;;;5049176;28;20429;-71
2022/05/29 08:42:57;;;;;;;;;;;14.20;70.10;;;;;;5048199;28;19920;-71
2022/05/29 08:45:23;;;;;;;;;;;14.20;69.90;;;;;;5067104;28;19923;-71
2022/05/29 08:47:49;;;;;;;;;;;14.20;69.90;;;;;;5065121;28;19967;-71
2022/05/29 08:50:32;;;;;;;;;;;14.20;69.90;;;;;;5066623;28;19913;-72
2022/05/29 08:53:03;;;;;;;;;;;14.20;70.00;;;;;;5049633;28;19913;-72
2022/05/29 08:55:47;;;;;;;;;;;14.30;70.10;;;;;;5043497;28;20314;-72
2022/05/29 08:58:33;;;;;;;;;;;14.30;69.90;;;;;;5045585;28;19913;-72
2022/05/29 09:01:17;;;;;;;;;;;14.50;69.60;;;;;;5027199;28;19917;-71
2022/05/29 09:04:04;;;;;;;;;;;14.60;69.20;;;;;;5030655;28;19917;-72
2022/05/29 09:06:44;;;;;;;;;;;14.70;69.10;;;;;;5066762;28;19935;-72
2022/05/29 09:09:09;;;;;;;;;;;14.70;69.00;;;;;;5055156;28;20423;-72
2022/05/29 09:11:41;;;;;;;;;;;14.70;68.90;;;;;;5048643;28;19928;-71
2022/05/29 09:14:21;;;;;;;;;;;14.70;69.10;;;;;;5055934;28;19966;-71
2022/05/29 09:16:49;;;;;;;;;;;14.70;69.20;;;;;;5066410;28;20655;-71
2022/05/29 09:19:32;;;;;;;;;;;14.60;69.30;;;;;;5056371;28;20707;-72
2022/05/29 09:21:58;;;;;;;;;;;14.60;69.50;;;;;;5066822;28;20009;-72
2022/05/29 09:24:23;;;;;;;;;;;14.50;69.70;;;;;;5063311;28;19970;-71
2022/05/29 09:26:49;;;;;;;;;;;14.50;69.70;;;;;;5065857;28;19916;-72
2022/05/29 09:29:14;;;;;;;;;;;14.50;69.90;;;;;;5048415;28;19916;-71
2022/05/29 09:31:40;;;;;;;;;;;14.50;70.40;;;;;;5063577;28;20476;-72
2022/05/29 09:34:05;;;;;;;;;;;14.40;70.20;;;;;;5066450;28;19927;-72
2022/05/29 09:36:37;;;;;;;;;;;14.40;70.40;;;;;;5063639;28;19913;-72
2022/05/29 09:39:10;;;;;;;;;;;14.40;70.60;;;;;;5053284;28;19912;-71
2022/05/29 09:41:41;;;;;;;;;;;14.40;71.20;;;;;;5059566;28;19920;-72
2022/05/29 09:44:09;;;;;;;;;;;14.50;70.50;;;;;;5066750;28;20365;-71
2022/05/29 09:46:36;;;;;;;;;;;14.50;70.40;;;;;;5063859;28;19916;-72
2022/05/29 09:51:50;;;;;;;;;;;14.50;70.30;;;;;;5054447;28;20324;-71
2022/05/29 09:54:23;;;;;;;;;;;14.50;70.20;;;;;;5045157;28;19921;-71
2022/05/29 09:56:48;;;;;;;;;;;14.60;70.10;;;;;;5055273;28;20686;-71
2022/05/29 09:59:16;;;;;;;;;;;14.60;70.00;;;;;;5065842;28;19912;-72
2022/05/29 10:01:45;;;;;;;;;;;14.60;70.00;;;;;;5063669;28;19935;-72
2022/05/29 10:04:22;;;;;;;;;;;14.70;70.00;;;;;;5066158;28;19916;-72
2022/05/29 10:06:53;;;;;;;;;;;14.70;70.00;;;;;;5063360;28;19916;-72
2022/05/29 10:09:20;;;;;;;;;;;14.80;69.70;;;;;;5050249;28;19913;-73
2022/05/29 10:11:47;;;;;;;;;;;14.90;69.40;;;;;;5049037;28;20008;-72
2022/05/29 10:14:36;;;;;;;;;;;15.00;69.00;;;;;;5050430;28;20346;-73
2022/05/29 10:17:06;;;;;;;;;;;15.10;68.90;;;;;;5044662;28;19916;-73
2022/05/29 10:19:36;;;;;;;;;;;15.10;68.90;;;;;;5036914;28;19923;-73
2022/05/29 10:22:03;;;;;;;;;;;15.20;69.00;;;;;;5045028;28;19916;-73
2022/05/29 10:24:37;;;;;;;;;;;15.40;68.50;;;;;;5065212;28;20041;-73
2022/05/29 10:27:13;;;;;;;;;;;15.50;68.20;;;;;;5062309;28;19999;-73
2022/05/29 10:29:39;;;;;;;;;;;15.70;67.90;;;;;;5065195;28;19912;-73
2022/05/29 10:32:06;;;;;;;;;;;15.70;67.70;;;;;;5063363;28;19913;-73
2022/05/29 10:34:33;;;;;;;;;;;15.70;67.70;;;;;;5066344;28;19940;-73
2022/05/29 10:36:59;;;;;;;;;;;15.80;67.70;;;;;;5064225;28;20038;-73
2022/05/29 10:39:26;;;;;;;;;;;15.90;67.80;;;;;;5048870;28;20050;-73
2022/05/29 10:41:52;;;;;;;;;;;15.90;67.70;;;;;;5045961;28;19913;-73
2022/05/29 10:44:38;;;;;;;;;;;15.90;67.90;;;;;;5061348;28;19927;-73
2022/05/29 10:47:06;;;;;;;;;;;15.80;68.00;;;;;;5056681;28;19921;-73
2022/05/29 10:49:37;;;;;;;;;;;15.80;68.30;;;;;;5061559;28;19923;-73
2022/05/29 10:52:02;;;;;;;;;;;15.70;68.60;;;;;;5065352;28;19912;-73
2022/05/29 10:54:37;;;;;;;;;;;15.60;68.80;;;;;;5059060;28;19923;-73
2022/05/29 10:57:08;;;;;;;;;;;15.50;69.10;;;;;;5065402;28;20604;-73
2022/05/29 10:59:51;;;;;;;;;;;15.50;69.30;;;;;;5063178;28;19916;-73
2022/05/29 11:05:00;;;;;;;;;;;15.40;69.60;;;;;;5062243;28;19927;-72
2022/05/29 11:07:46;;;;;;;;;;;15.30;69.70;;;;;;5064992;28;19912;-72
2022/05/29 11:10:27;;;;;;;;;;;15.30;70.00;;;;;;5043725;28;19967;-72
2022/05/29 11:12:52;;;;;;;;;;;15.30;70.00;;;;;;5050679;28;20362;-72
2022/05/29 11:15:18;;;;;;;;;;;15.40;70.20;;;;;;5062075;28;20027;-72
2022/05/29 11:17:44;;;;;;;;;;;15.40;70.40;;;;;;5065084;28;20335;-72
2022/05/29 11:20:09;;;;;;;;;;;15.50;70.20;;;;;;5057132;28;19916;-72
2022/05/29 11:22:47;;;;;;;;;;;15.60;70.20;;;;;;5064519;28;19993;-72
2022/05/29 11:25:31;;;;;;;;;;;15.60;70.00;;;;;;5061267;28;19995;-72
2022/05/29 11:28:06;;;;;;;;;;;15.60;70.10;;;;;;5064310;28;19920;-73
2022/05/29 11:30:55;;;;;;;;;;;15.60;70.20;;;;;;5061505;28;20431;-72
2022/05/29 11:33:30;;;;;;;;;;;15.60;70.30;;;;;;5051217;28;19959;-73
2022/05/29 11:36:34;;;;;;;;;;;15.50;70.50;;;;;;5061644;28;20609;-72
2022/05/29 11:39:22;;;;;;;;;;;15.50;70.70;;;;;;4950393;28;19922;-72
2022/05/29 11:41:53;;;;;;;;;;;15.40;70.80;;;;;;4961087;28;19914;-72
2022/05/29 11:44:19;;;;;;;;;;;15.30;71.00;;;;;;5011909;28;20389;-72
2022/05/29 11:52:41;;;;;;;;;;;15.30;71.70;;;;;;5033374;28;19967;-72
2022/05/29 11:55:17;;;;;;;;;;;15.40;72.00;;;;;;5030873;28;19920;-72
2022/05/29 11:57:54;;;;;;;;;;;15.50;71.70;;;;;;5070997;28;19908;-73
2022/05/29 12:00:19;;;;;;;;;;;15.50;71.80;;;;;;5068246;28;19958;-72
2022/05/29 12:02:54;;;;;;;;;;;15.50;71.70;;;;;;5067976;28;19920;-72
2022/05/29 12:05:38;;;;;;;;;;;15.50;71.90;;;;;;5050327;28;19971;-72
2022/05/29 12:08:27;;;;;;;;;;;15.50;71.90;;;;;;5036187;28;19944;-72
2022/05/29 12:11:11;;;;;;;;;;;15.50;71.90;;;;;;5033619;28;19966;-72
2022/05/29 12:13:42;;;;;;;;;;;15.50;72.00;;;;;;5065595;28;19909;-72
2022/05/29 12:16:12;;;;;;;;;;;15.50;72.10;;;;;;5055989;28;19920;-72
2022/05/29 12:18:43;;;;;;;;;;;15.50;72.20;;;;;;5070729;28;19962;-72
2022/05/29 12:21:11;;;;;;;;;;;15.50;72.10;;;;;;5067208;28;19918;-72
2022/05/29 12:23:48;;;;;;;;;;;15.50;72.10;;;;;;5070327;28;19924;-72
2022/05/29 12:26:20;;;;;;;;;;;15.50;71.90;;;;;;5068108;28;19917;-72
2022/05/29 12:28:52;;;;;;;;;;;15.50;71.90;;;;;;5030413;28;19925;-72
2022/05/29 12:31:38;;;;;;;;;;;15.60;71.80;;;;;;5030575;28;20014;-73
2022/05/29 12:34:05;;;;;;;;;;;15.70;71.60;;;;;;5030975;28;20400;-72
2022/05/29 12:36:30;;;;;;;;;;;15.80;71.50;;;;;;5030279;28;19913;-73
2022/05/29 12:38:57;;;;;;;;;;;15.90;71.20;;;;;;5054927;28;19958;-72
2022/05/29 12:41:26;;;;;;;;;;;16.00;71.00;;;;;;5050811;28;20004;-73
2022/05/29 12:43:57;;;;;;;;;;;16.10;70.70;;;;;;5047333;28;19967;-72
2022/05/29 12:46:25;;;;;;;;;;;16.20;70.30;;;;;;5070217;28;19912;-73
2022/05/29 12:49:10;;;;;;;;;;;16.30;70.10;;;;;;5067775;28;19917;-73
2022/05/29 12:51:41;;;;;;;;;;;16.30;70.00;;;;;;5070277;28;19912;-72
2022/05/29 12:54:28;;;;;;;;;;;16.30;69.90;;;;;;5048014;28;19986;-73
2022/05/29 12:57:04;;;;;;;;;;;16.40;70.00;;;;;;5068570;28;19919;-73
2022/05/29 12:59:49;;;;;;;;;;;16.40;70.10;;;;;;5066286;28;19923;-73
2022/05/29 13:02:23;;;;;;;;;;;16.40;70.10;;;;;;5066649;28;19912;-73
2022/05/29 13:05:11;;;;;;;;;;;16.40;70.10;;;;;;5061866;28;19966;-73
2022/05/29 13:07:57;;;;;;;;;;;16.40;70.00;;;;;;5050881;28;19920;-73
2022/05/29 13:10:27;;;;;;;;;;;16.50;70.00;;;;;;5045600;28;19947;-72
2022/05/29 13:13:00;;;;;;;;;;;16.60;69.80;;;;;;5033456;28;20511;-73
2022/05/29 13:15:29;;;;;;;;;;;16.70;69.50;;;;;;5054772;28;20425;-73
2022/05/29 13:18:02;;;;;;;;;;;16.80;69.30;;;;;;5045940;28;19913;-73
2022/05/29 13:20:27;;;;;;;;;;;16.80;69.10;;;;;;5062537;28;19912;-73
2022/05/29 13:22:53;;;;;;;;;;;16.90;69.20;;;;;;5066750;28;19928;-73
2022/05/29 13:25:26;;;;;;;;;;;16.90;69.30;;;;;;5063655;28;20042;-72
2022/05/29 13:27:52;;;;;;;;;;;16.80;69.30;;;;;;5064967;28;20534;-73
2022/05/29 13:30:36;;;;;;;;;;;16.80;69.50;;;;;;5050532;28;19917;-73
2022/05/29 13:33:20;;;;;;;;;;;16.70;69.70;;;;;;5036787;28;20020;-72
2022/05/29 13:35:45;;;;;;;;;;;16.70;70.00;;;;;;5048031;28;19986;-72
2022/05/29 13:38:31;;;;;;;;;;;16.60;70.20;;;;;;5034307;28;20551;-72
2022/05/29 13:41:04;;;;;;;;;;;16.50;70.30;;;;;;5056205;28;19928;-73
2022/05/29 13:43:30;;;;;;;;;;;16.50;70.50;;;;;;5065341;28;19920;-72
2022/05/29 13:45:57;;;;;;;;;;;16.50;70.70;;;;;;5062537;28;20665;-72
2022/05/29 13:48:27;;;;;;;;;;;16.60;70.90;;;;;;5060935;28;19920;-72
2022/05/29 13:51:03;;;;;;;;;;;16.50;71.20;;;;;;5048623;28;19934;-73
2022/05/29 13:53:29;;;;;;;;;;;16.50;71.60;;;;;;5053316;28;19952;-72
2022/05/29 13:56:18;;;;;;;;;;;16.50;71.60;;;;;;5053906;28;19916;-72
2022/05/29 14:04:39;;;;;;;;;;;16.40;72.00;;;;;;5025907;28;19963;-72
2022/05/29 14:07:08;;;;;;;;;;;16.40;72.00;;;;;;5039652;28;19962;-72
2022/05/29 14:09:33;;;;;;;;;;;16.40;72.00;;;;;;5048338;28;19978;-72
2022/05/29 14:11:58;;;;;;;;;;;16.40;72.10;;;;;;5055129;28;19925;-72
2022/05/29 14:14:30;;;;;;;;;;;16.40;72.20;;;;;;5062875;28;19920;-73
2022/05/29 14:17:18;;;;;;;;;;;16.50;72.20;;;;;;5056378;28;19923;-72
2022/05/29 14:20:00;;;;;;;;;;;16.50;72.40;;;;;;5065530;28;19913;-73
2022/05/29 14:22:48;;;;;;;;;;;16.50;72.40;;;;;;5063038;28;20411;-73
2022/05/29 14:25:32;;;;;;;;;;;16.50;72.50;;;;;;5065538;28;19912;-73
2022/05/29 14:28:32;;;;;;;;;;;16.50;72.50;;;;;;5062886;28;19917;-72
2022/05/29 14:30:58;;;;;;;;;;;16.50;72.50;;;;;;4962955;28;19956;-72
2022/05/29 14:33:42;;;;;;;;;;;16.50;72.50;;;;;;5023996;28;19947;-72
2022/05/29 14:36:26;;;;;;;;;;;16.50;72.40;;;;;;5064291;28;19961;-73
2022/05/29 14:39:11;;;;;;;;;;;16.60;72.60;;;;;;5019363;28;20361;-72
2022/05/29 14:41:47;;;;;;;;;;;16.60;72.50;;;;;;5043707;28;19913;-72
2022/05/29 14:44:33;;;;;;;;;;;16.60;72.70;;;;;;5049402;28;20290;-72
2022/05/29 14:49:31;;;;;;;;;;;16.70;72.40;;;;;;5029211;28;19915;-73
2022/05/29 14:52:00;;;;;;;;;;;16.70;72.50;;;;;;5025469;28;19920;-72
2022/05/29 14:54:37;;;;;;;;;;;16.70;72.50;;;;;;5024881;28;19998;-72
2022/05/29 14:57:07;;;;;;;;;;;16.70;72.40;;;;;;5024048;28;20409;-73
2022/05/29 14:59:36;;;;;;;;;;;16.70;72.50;;;;;;5065224;28;20518;-73
2022/05/29 15:02:07;;;;;;;;;;;16.70;72.60;;;;;;5065158;28;20130;-72
2022/05/29 15:04:35;;;;;;;;;;;16.70;72.60;;;;;;5062121;28;19956;-72
2022/05/29 15:12:37;;;;;;;;;;;16.70;72.80;;;;;;5047006;28;19919;-72
2022/05/29 15:15:21;;;;;;;;;;;16.60;72.80;;;;;;5057090;28;19917;-72